Latest Weather Observations for Cape Otway

IDV60801

Issued at 5:22 pm EST Tuesday 20 August 2019 (issued every 10 minutes, with the page automatically refreshed every 10 minutes)

About weather observations | Map of weather stations | Latest weather observations for VIC | Other Formats
Station Details ID: 090015 Name: CAPE OTWAY LIGHTHOUSE Lat: -38.86 Lon: 143.51 Height: 82.0 m
Data from the previous 72 hours. | See also: Recent months at Cape Otway
Date/Time
EST
Temp
°C
App
Temp
°C
Dew
Point
°C
Rel
Hum
%
Delta-T
°C
Wind Press
QNH
hPa
Press
MSL
hPa
Rain since
9am
mm
Dir  Spd
km/h
Gust
km/h
Spd
kts
Gust
kts
20/05:00pm 11.7 3.4 9.9 89 0.9 WNW 44 69 24 37 1017.6 1017.7 2.4
20/04:30pm 11.2 2.6 10.3 94 0.5 W 46 65 25 35 1017.5 1017.6 2.4
20/04:00pm 11.2 1.0 10.1 93 0.6 W 54 80 29 43 1017.6 1017.7 2.0
20/03:30pm 11.3 1.0 9.6 89 0.9 W 54 83 29 45 1017.7 1017.8 1.8
20/03:00pm 11.5 3.3 9.6 88 1.0 W 43 69 23 37 1017.9 1018.0 1.8
20/02:30pm 12.1 2.5 9.5 84 1.3 W 50 72 27 39 1018.1 1018.2 1.8
20/02:00pm 11.9 4.3 10.6 92 0.7 WNW 41 61 22 33 1018.4 1018.5 1.8
20/01:30pm 11.7 3.6 10.6 93 0.6 WNW 44 63 24 34 1018.3 1018.4 1.8
20/01:00pm 11.3 2.0 10.4 94 0.5 WNW 50 82 27 44 1018.5 1018.6 1.6
20/12:30pm 11.5 2.5 10.4 93 0.6 WNW 48 70 26 38 1018.8 1018.9 1.4
20/12:00pm 11.2 1.8 10.3 94 0.5 WNW 50 74 27 40 1019.3 1019.4 1.2
20/11:30am 11.3 2.7 10.4 94 0.5 WNW 46 65 25 35 1019.6 1019.7 1.0
20/11:00am 11.0 2.7 10.1 94 0.5 WNW 44 63 24 34 1020.0 1020.1 0.8
20/10:31am 11.0 2.7 10.1 94 0.5 WNW 44 67 24 36 1019.9 1020.0 0.6
20/10:30am 10.9 2.6 10.0 94 0.5 WNW 44 57 24 31 1020.0 1020.1 0.6
20/10:00am 10.9 3.5 10.0 94 0.5 WNW 39 57 21 31 1020.2 1020.3 0.2
20/09:30am 10.9 2.8 10.1 95 0.4 WNW 43 63 23 34 1020.2 1020.3 0.2
20/09:00am 11.0 3.7 10.1 94 0.5 WNW 39 63 21 34 1020.2 1020.3 2.2
20/08:30am 10.8 3.0 9.7 93 0.6 WNW 41 63 22 34 1020.3 1020.4 2.0
20/08:00am 10.7 3.6 9.6 93 0.6 W 37 56 20 30 1020.3 1020.4 1.8
20/07:30am 11.0 2.7 9.4 90 0.8 WNW 43 65 23 35 1020.2 1020.3 1.4
20/07:00am 11.2 3.5 8.6 84 1.3 W 39 63 21 34 1020.0 1020.1 1.4
20/06:35am 11.1 3.3 8.3 83 1.4 WNW 39 57 21 31 1020.0 1020.1 1.4
20/06:30am 11.1 3.6 8.1 82 1.5 WNW 37 54 20 29 1020.0 1020.1 1.4
20/06:01am 10.4 1.0 8.8 90 0.8 W 48 67 26 36 1019.9 1020.0 1.4
20/06:00am 10.5 1.1 8.9 90 0.8 W 48 63 26 34 1019.9 1020.0 1.4
20/05:30am 11.1 2.6 8.7 85 1.2 W 43 65 23 35 1020.1 1020.2 1.4
20/05:04am 11.4 2.7 7.5 77 1.9 W 43 61 23 33 1019.9 1020.0 1.4
20/05:00am 11.3 1.9 7.2 76 2.0 W 46 61 25 33 1019.9 1020.0 1.4
20/04:43am 11.5 1.6 6.8 73 2.2 W 48 67 26 36 1019.8 1019.9 1.4
20/04:30am 11.4 1.7 7.3 76 2.0 W 48 63 26 34 1019.8 1019.9 1.4
20/04:00am 10.9 2.5 8.8 87 1.0 W 43 61 23 33 1020.1 1020.2 1.4
20/03:30am 11.2 1.9 7.7 79 1.7 W 46 69 25 37 1020.3 1020.4 1.4
20/03:02am 10.9 3.0 9.3 90 0.8 W 41 59 22 32 1020.6 1020.7 1.4
20/03:00am 10.8 2.5 9.2 90 0.8 W 43 59 23 32 1020.5 1020.6 1.4
20/02:30am 11.0 2.4 8.2 83 1.4 W 43 63 23 34 1020.8 1020.9 1.2
20/02:18am 11.4 2.0 7.3 76 2.0 W 46 65 25 35 1020.7 1020.8 1.2
20/02:00am 11.5 2.1 7.2 75 2.1 W 46 57 25 31 1020.9 1021.0 1.2
20/01:30am 11.3 1.9 7.2 76 2.0 W 46 67 25 36 1021.2 1021.3 1.2
20/01:00am 11.3 2.3 7.2 76 2.0 W 44 63 24 34 1021.1 1021.2 1.2
20/12:30am 11.0 1.1 6.6 74 2.1 W 48 69 26 37 1021.2 1021.3 1.2
20/12:00am 11.2 1.3 6.5 73 2.2 W 48 67 26 36 1021.2 1021.3 1.2
 
Date/Time
EST
Temp
°C
App
Temp
°C
Dew
Point
°C
Rel
Hum
%
Delta-T
°C
Wind Press
QNH
hPa
Press
MSL
hPa
Rain since
9am
mm
Dir  Spd
km/h
Gust
km/h
Spd
kts
Gust
kts
19/11:30pm 11.1 1.3 7.0 76 2.0 W 48 69 26 37 1021.4 1021.5 1.2
19/11:00pm 10.7 0.4 6.5 75 2.0 W 50 69 27 37 1021.3 1021.4 1.2
19/10:30pm 11.0 1.4 6.4 73 2.2 W 46 65 25 35 1021.6 1021.7 1.2
19/10:00pm 10.9 1.7 6.5 74 2.1 W 44 63 24 34 1021.6 1021.7 1.2
19/09:30pm 10.7 1.2 6.5 75 2.0 W 46 67 25 36 1021.7 1021.8 1.2
19/09:16pm 11.1 2.0 7.0 76 2.0 W 44 63 24 34 1021.5 1021.6 1.2
19/09:00pm 10.9 1.8 7.0 77 1.9 W 44 61 24 33 1021.5 1021.6 1.2
19/08:30pm 10.6 1.2 7.1 79 1.7 W 46 67 25 36 1021.4 1021.5 1.2
19/08:00pm 10.2 1.2 7.1 81 1.5 W 44 63 24 34 1021.3 1021.4 1.2
19/07:31pm 10.0 1.3 7.6 85 1.2 W 43 61 23 33 1021.4 1021.5 1.2
19/07:30pm 10.1 1.4 7.7 85 1.2 W 43 59 23 32 1021.4 1021.5 1.2
19/07:03pm 10.5 2.1 7.2 80 1.6 W 41 61 22 33 1021.0 1021.1 1.0
19/07:00pm 10.3 2.0 7.9 85 1.2 W 41 56 22 30 1021.0 1021.1 1.0
19/06:30pm 10.8 2.3 6.9 77 1.9 W 41 59 22 32 1020.6 1020.7 1.0
19/06:01pm 10.9 2.1 5.7 70 2.4 W 41 59 22 32 1020.3 1020.4 1.0
19/06:00pm 10.8 2.0 5.6 70 2.4 W 41 57 22 31 1020.3 1020.4 1.0
19/05:36pm 10.7 1.5 5.3 69 2.5 W 43 61 23 33 1020.1 1020.2 1.0
19/05:30pm 10.8 2.4 5.8 71 2.3 W 39 52 21 28 1020.2 1020.3 1.0
19/05:00pm 10.8 2.1 4.3 64 2.9 W 39 61 21 33 1019.9 1020.0 1.0
19/04:48pm 10.9 2.7 4.6 65 2.8 W 37 56 20 30 1019.9 1020.0 1.0
19/04:30pm 11.0 2.4 4.5 64 2.9 W 39 52 21 28 1019.8 1019.9 1.0
19/04:00pm 10.9 3.0 4.4 64 2.9 W 35 54 19 29 1019.7 1019.8 1.0
19/03:32pm 10.9 3.3 3.7 61 3.2 WSW 33 52 18 28 1019.6 1019.7 1.0
19/03:30pm 10.9 2.9 3.7 61 3.2 WSW 35 52 19 28 1019.5 1019.6 1.0
19/03:18pm 11.0 2.7 4.0 62 3.1 WSW 37 57 20 31 1019.4 1019.5 1.0
19/03:00pm 10.8 3.2 4.0 63 3.0 WSW 33 50 18 27 1019.3 1019.4 1.0
19/02:45pm 10.3 2.5 5.1 70 2.4 WSW 35 54 19 29 1019.2 1019.3 1.0
19/02:30pm 10.3 1.7 4.9 69 2.4 WSW 39 52 21 28 1019.1 1019.2 1.0
19/02:03pm 10.2 2.0 4.6 68 2.5 WSW 37 56 20 30 1019.0 1019.1 1.0
19/02:00pm 10.1 1.9 4.7 69 2.4 WSW 37 54 20 29 1018.9 1019.0 1.0
19/01:39pm 9.7 2.0 5.3 74 2.0 W 35 57 19 31 1018.8 1018.9 1.0
19/01:30pm 8.9 1.4 6.5 85 1.1 W 35 48 19 26 1018.8 1018.9 1.0
19/01:00pm 10.7 1.8 5.0 68 2.6 W 41 56 22 30 1018.6 1018.7 0.6
19/12:30pm 10.3 1.6 4.0 65 2.8 WSW 39 57 21 31 1018.5 1018.6 0.6
19/12:00pm 8.9 0.1 5.6 80 1.5 W 41 59 22 32 1018.5 1018.6 0.6
19/11:59am 8.7 -0.5 5.6 81 1.4 W 43 67 23 36 1018.5 1018.6 0.6
19/11:30am 8.9 0.2 5.8 81 1.4 WSW 41 61 22 33 1018.5 1018.6 0.4
19/11:00am 9.0 0.0 4.6 74 2.0 WSW 41 59 22 32 1018.2 1018.3 0.2
19/10:30am 7.5 -2.8 4.6 82 1.3 WSW 48 67 26 36 1017.9 1018.0 0.0
19/10:00am 9.5 0.0 3.9 68 2.5 WSW 43 63 23 34 1017.2 1017.3 0.0
19/09:41am 9.5 0.6 2.8 63 2.9 WSW 39 57 21 31 1016.9 1016.9 0.0
19/09:30am 9.1 0.2 3.1 66 2.6 W 39 56 21 30 1017.0 1017.0 0.0
19/09:01am 9.6 -0.1 3.1 64 2.8 WSW 43 61 23 33 1016.3 1016.3 0.0
19/09:00am 9.6 -0.2 3.1 64 2.8 WSW 44 61 24 33 1016.2 1016.2 18.0
19/08:30am 8.9 -1.2 1.6 60 3.0 WSW 44 63 24 34 1015.7 1015.7 18.0
19/08:00am 8.7 -0.3 4.3 74 1.9 WSW 41 61 22 33 1015.1 1015.1 18.0
19/07:43am 8.5 0.4 3.1 69 2.3 W 35 57 19 31 1014.7 1014.8 18.0
19/07:30am 7.6 -1.3 3.1 73 1.9 W 39 50 21 27 1014.5 1014.6 18.0
19/07:19am 7.0 -3.6 3.1 76 1.6 W 48 72 26 39 1014.2 1014.3 18.0
19/07:00am 8.8 -1.2 2.2 63 2.8 WSW 44 65 24 35 1013.7 1013.8 18.0
19/06:30am 8.6 -0.3 3.2 69 2.3 WSW 39 57 21 31 1013.0 1013.1 18.0
19/06:00am 8.2 -0.8 2.7 68 2.3 WSW 39 65 21 35 1012.5 1012.6 18.0
19/05:30am 7.7 -0.9 2.6 70 2.1 W 37 57 20 31 1012.3 1012.4 18.0
19/05:00am 8.2 -0.8 2.7 68 2.3 WSW 39 63 21 34 1011.7 1011.8 18.0
19/04:30am 7.2 -2.4 3.4 77 1.6 WSW 43 67 23 36 1011.4 1011.5 18.0
19/04:06am 8.1 -3.3 3.0 70 2.2 WSW 52 83 28 45 1010.8 1010.9 18.0
19/04:00am 8.4 -1.0 2.2 65 2.6 WSW 41 59 22 32 1010.9 1011.0 17.8
19/03:30am 7.8 -0.3 3.5 74 1.8 WSW 35 54 19 29 1011.1 1011.2 17.8
19/03:12am 7.1 -4.2 3.5 78 1.5 WSW 52 87 28 47 1011.2 1011.3 17.8
19/03:00am 7.7 -2.8 3.4 74 1.8 SW 48 80 26 43 1010.4 1010.5 17.8
19/02:58am 7.9 -2.0 3.0 71 2.1 WSW 44 69 24 37 1010.4 1010.5 17.6
19/02:30am 8.3 -0.7 2.5 67 2.4 WSW 39 59 21 32 1010.6 1010.7 17.6
19/02:00am 8.0 -0.4 3.8 75 1.8 WSW 37 56 20 30 1010.3 1010.4 17.6
19/01:30am 6.4 -4.4 3.9 84 1.1 WSW 50 80 27 43 1010.7 1010.8 17.2
19/01:00am 8.2 -1.6 2.4 67 2.4 WSW 43 67 23 36 1009.6 1009.7 16.8
19/12:30am 8.0 -3.2 4.0 76 1.7 SW 52 70 28 38 1009.3 1009.4 16.8
19/12:00am 8.0 -1.7 3.1 71 2.1 WSW 43 61 23 33 1009.2 1009.3 16.8
 
Date/Time
EST
Temp
°C
App
Temp
°C
Dew
Point
°C
Rel
Hum
%
Delta-T
°C
Wind Press
QNH
hPa
Press
MSL
hPa
Rain since
9am
mm
Dir  Spd
km/h
Gust
km/h
Spd
kts
Gust
kts
18/11:30pm 7.4 -2.1 5.0 85 1.1 W 44 70 24 38 1008.7 1008.8 16.8
18/11:19pm 7.6 -1.8 4.6 81 1.3 W 43 61 23 33 1008.4 1008.5 15.6
18/11:10pm 7.5 -2.0 3.7 77 1.6 W 43 67 23 36 1008.4 1008.5 15.4
18/11:00pm 8.7 -0.9 3.3 69 2.3 WSW 43 63 23 34 1008.1 1008.2 15.4
18/10:30pm 7.0 -0.4 4.8 86 1.0 WSW 33 63 18 34 1008.2 1008.3 15.4
18/10:23pm 8.0 0.7 5.6 85 1.1 W 33 54 18 29 1008.0 1008.1 14.4
18/10:19pm 8.7 1.4 4.7 76 1.8 WSW 32 46 17 25 1007.8 1007.9 14.2
18/10:06pm 8.3 -1.7 4.1 75 1.8 SW 46 65 25 35 1007.6 1007.7 14.2
18/10:00pm 7.7 -2.5 5.0 83 1.2 SW 48 67 26 36 1007.6 1007.7 14.2
18/09:54pm 7.2 -2.7 5.0 86 1.0 SW 46 69 25 37 1007.8 1007.9 14.2
18/09:46pm 8.2 0.8 5.1 81 1.4 SW 33 61 18 33 1007.6 1007.7 14.0
18/09:36pm 7.6 -1.8 4.6 81 1.3 SW 43 69 23 37 1007.4 1007.5 14.0
18/09:30pm 7.4 -4.4 4.9 84 1.1 SW 56 80 30 43 1007.2 1007.3 14.0
18/09:28pm 7.5 -5.2 5.3 86 1.0 SW 61 80 33 43 1007.2 1007.3 14.0
18/09:27pm 7.5 -5.5 5.3 86 1.0 SW 63 80 34 43 1007.2 1007.3 14.0
18/09:00pm 7.4 -4.1 4.5 82 1.3 WSW 54 91 29 49 1006.8 1006.8 13.6
18/08:48pm 7.3 -3.3 5.1 86 1.0 WSW 50 89 27 48 1006.2 1006.2 12.8
18/08:45pm 7.1 -2.3 5.3 88 0.8 WSW 44 78 24 42 1006.5 1006.5 12.8
18/08:43pm 6.6 -2.8 4.3 85 1.0 WSW 43 78 23 42 1006.4 1006.4 12.8
18/08:33pm 8.2 -1.3 4.8 79 1.5 SW 44 63 24 34 1006.2 1006.2 12.4
18/08:30pm 8.2 -1.7 4.8 79 1.5 SW 46 63 25 34 1006.1 1006.1 12.4
18/08:00pm 8.2 -1.9 5.8 85 1.1 SW 48 67 26 36 1005.6 1005.6 12.2
18/07:35pm 7.5 -5.0 6.0 90 0.7 SW 61 80 33 43 1005.0 1005.0 12.2
18/07:30pm 7.5 -5.7 6.1 91 0.6 SW 65 80 35 43 1004.8 1004.8 12.0
18/07:03pm 8.3 -4.3 7.1 92 0.6 SW 63 82 34 44 1003.3 1003.3 11.0
18/07:00pm 8.2 -4.8 7.0 92 0.6 SW 65 82 35 44 1003.1 1003.1 11.0
18/06:52pm 8.4 -3.4 7.5 94 0.4 SW 59 80 32 43 1002.8 1002.8 10.6
18/06:44pm 8.5 -0.3 7.3 92 0.6 WSW 43 67 23 36 1002.5 1002.5 10.0
18/06:39pm 8.9 1.3 7.5 91 0.7 SW 37 65 20 35 1002.3 1002.4 9.4
18/06:30pm 8.9 1.7 7.7 92 0.6 SSW 35 48 19 26 1001.9 1002.0 9.0
18/06:17pm 8.4 1.1 7.0 91 0.7 WSW 35 59 19 32 1001.6 1001.7 8.4
18/06:13pm 7.5 1.6 5.8 89 0.8 W 26 59 14 32 1001.6 1001.7 7.8
18/06:00pm 9.2 4.6 8.0 92 0.6 WSW 22 39 12 21 1001.5 1001.6 3.4
18/05:30pm 10.0 4.8 7.4 84 1.2 W 24 35 13 19 1000.9 1001.0 0.8
18/05:00pm 12.3 7.1 5.5 63 3.2 NW 22 35 12 19 1000.8 1000.9 0.8
18/04:30pm 12.9 7.8 6.0 63 3.3 NNW 22 33 12 18 1000.5 1000.6 0.8
18/04:00pm 13.0 7.8 5.7 61 3.5 NNW 22 37 12 20 1000.2 1000.3 0.8
18/03:30pm 12.8 8.1 5.9 63 3.3 NNW 20 35 11 19 1000.4 1000.5 0.8
18/03:00pm 12.6 7.7 6.9 68 2.8 NNW 22 37 12 20 1000.8 1000.9 0.8
18/02:45pm 11.2 5.2 6.9 75 2.1 NNW 28 46 15 25 1000.8 1000.9 0.8
18/02:30pm 12.2 6.5 6.7 69 2.6 NNW 26 43 14 23 1000.8 1000.9 0.8
18/02:00pm 11.8 6.5 6.7 71 2.4 NNW 24 33 13 18 1001.4 1001.5 0.8
18/01:30pm 11.6 5.8 6.3 70 2.5 NNW 26 41 14 22 1001.5 1001.6 0.8
18/01:00pm 12.2 6.6 7.1 71 2.5 NNW 26 43 14 23 1001.9 1002.0 0.8
18/12:30pm 10.6 4.9 6.9 78 1.8 N 26 39 14 21 1002.3 1002.4 0.8
18/12:00pm 10.4 5.6 7.5 82 1.4 N 22 35 12 19 1003.7 1003.7 0.6
18/11:30am 10.8 6.5 6.9 77 1.9 NNW 19 30 10 16 1004.0 1004.0 0.2
18/11:00am 12.0 6.8 5.6 65 3.0 NNW 22 35 12 19 1004.7 1004.7 0.0
18/10:30am 12.4 6.7 5.1 61 3.4 NNW 24 33 13 18 1004.7 1004.7 0.0
18/10:00am 12.4 5.9 4.6 59 3.6 NNW 28 43 15 23 1005.1 1005.1 0.0
18/09:30am 12.9 5.9 4.1 55 4.0 NNW 30 46 16 25 1004.9 1004.9 0.0
18/09:06am 13.6 6.9 3.7 51 4.5 NNW 28 48 15 26 1005.1 1005.1 0.0
18/09:00am 13.7 7.0 3.8 51 4.5 NNW 28 44 15 24 1005.0 1005.0 0.0
18/08:37am 13.8 6.0 3.0 48 4.8 N 33 52 18 28 1005.0 1005.0 0.0
18/08:30am 13.9 6.1 3.1 48 4.8 N 33 48 18 26 1005.1 1005.1 0.0
18/08:01am 13.9 5.7 2.5 46 5.1 N 35 54 19 29 1004.6 1004.6 0.0
18/08:00am 14.0 5.4 2.6 46 5.1 N 37 54 20 29 1004.5 1004.5 0.0
18/07:30am 13.8 6.0 3.0 48 4.8 N 33 56 18 30 1004.3 1004.3 0.0
18/07:00am 13.9 5.7 2.8 47 5.0 N 35 54 19 29 1004.1 1004.1 0.0
18/06:30am 14.2 5.7 3.1 47 5.0 N 37 61 20 33 1003.9 1003.9 0.0
18/06:00am 14.0 6.3 3.2 48 4.9 N 33 61 18 33 1004.5 1004.5 0.0
18/05:30am 13.6 5.9 3.4 50 4.6 N 33 52 18 28 1004.9 1004.9 0.0
18/05:00am 13.2 5.1 3.3 51 4.5 N 35 57 19 31 1005.4 1005.4 0.0
18/04:30am 13.0 4.9 3.1 51 4.4 N 35 57 19 31 1005.7 1005.7 0.0
18/04:00am 12.8 4.3 2.9 51 4.4 N 37 56 20 30 1006.2 1006.2 0.0
18/03:30am 12.7 4.1 2.8 51 4.4 N 37 57 20 31 1006.6 1006.6 0.0
18/03:00am 12.5 3.6 2.9 52 4.3 N 39 61 21 33 1007.1 1007.2 0.0
18/02:32am 12.3 3.8 3.0 53 4.1 N 37 59 20 32 1008.0 1008.1 0.0
18/02:30am 12.2 3.7 2.9 53 4.1 N 37 54 20 29 1008.1 1008.2 0.0
18/02:00am 12.4 3.4 2.6 51 4.3 N 39 61 21 33 1008.7 1008.8 0.0
18/01:30am 12.2 3.6 2.6 52 4.2 N 37 57 20 31 1008.9 1009.0 0.0
18/01:00am 12.1 3.2 2.8 53 4.1 N 39 65 21 35 1009.0 1009.1 0.0
18/12:35am 12.0 4.3 2.5 52 4.1 N 32 57 17 31 1009.9 1010.0 0.0
18/12:30am 11.9 5.4 2.4 52 4.1 N 26 43 14 23 1010.2 1010.3 0.0
18/12:00am 11.5 4.9 2.0 52 4.1 N 26 46 14 25 1010.9 1011.0 0.0
 
Date/Time
EST
Temp
°C
App
Temp
°C
Dew
Point
°C
Rel
Hum
%
Delta-T
°C
Wind Press
QNH
hPa
Press
MSL
hPa
Rain since
9am
mm
Dir  Spd
km/h
Gust
km/h
Spd
kts
Gust
kts
17/11:38pm 11.4 4.4 2.2 53 4.0 N 28 48 15 26 1011.4 1011.5 0.0
17/11:30pm 11.2 4.7 2.8 56 3.7 NNW 26 54 14 29 1011.9 1012.0 0.0
17/11:26pm 11.4 4.5 2.7 55 3.8 N 28 54 15 29 1011.8 1011.9 0.0
17/11:00pm 10.5 6.1 2.6 58 3.4 NNW 15 26 8 14 1012.5 1012.6 0.0
17/10:30pm 9.7 6.6 3.7 66 2.6 ESE 9 13 5 7 1012.5 1012.6 0.0
17/10:00pm 8.0 5.5 3.5 73 1.9 NW 6 9 3 5 1013.2 1013.3 0.0
17/09:30pm 9.0 6.0 4.0 71 2.2 ENE 9 11 5 6 1013.3 1013.4 0.0
17/09:00pm 9.2 6.3 4.8 74 2.0 NE 9 15 5 8 1014.0 1014.1 0.0
17/08:30pm 8.8 5.3 5.5 80 1.5 NE 13 19 7 10 1014.2 1014.3 0.0
17/08:00pm 9.2 5.4 5.8 79 1.6 NE 15 19 8 10 1014.6 1014.7 0.0
17/07:30pm 9.3 5.5 5.9 79 1.6 NE 15 19 8 10 1014.9 1015.0 0.0
17/07:00pm 9.4 6.0 5.9 79 1.6 NE 13 17 7 9 1015.2 1015.2 0.0
17/06:30pm 10.1 6.0 6.4 78 1.7 ENE 17 28 9 15 1015.1 1015.1 0.0
17/06:00pm 10.5 5.9 6.3 75 2.0 ENE 20 32 11 17 1014.7 1014.8 0.0
17/05:30pm 10.6 5.8 5.6 71 2.3 NE 20 28 11 15 1015.2 1015.2 0.0

Other formats

Comma delimited format used in spreadsheet applications
http://www.bom.gov.au/fwo/IDV60801/IDV60801.94842.axf

JavaScript Object Notation format (JSON) in row-major order
http://www.bom.gov.au/fwo/IDV60801/IDV60801.94842.json

Data quality

Most of these data are generated automatically and are frequently updated. Quality checks on data are not normally performed. It is possible for incorrect values to appear. Refer to information at About Latest Weather Observations and please check the disclaimer before using these data.